EZY63ZD EHAM-EGKK
Flight info
| Callsign | EZY63ZD |
|---|---|
| Flight time | N/A |
| Altitude | 24000 |
| Route | IDRID L980 ABNED Z344 AMRIV Q63 ARREK Y4 TEBRA |
| Aircraft | A320/M-SDE3FGHIRWY/LB1 |
Departure
| Time | 2026-05-05 15:32 |
|---|---|
| Airport | Amsterdam Airport Schiphol (EHAM) |
Arrival
| Time | N/A |
|---|---|
| Airport | London Gatwick Airport (EGKK) |
| Time | Latitude | Longitude | Altitude | Speed | Heading |
|---|---|---|---|---|---|
| 2026-05-05 15:00 | 52.30983 | 4.75357 | -1 ft | 0 kts | 148° |
| 2026-05-05 15:17 | 52.30985 | 4.75355 | -1 ft | 3 kts | 148° |
| 2026-05-05 15:17 | 52.31008 | 4.75334 | -1 ft | 4 kts | 146° |
| 2026-05-05 15:18 | 52.31019 | 4.75311 | -1 ft | 3 kts | 88° |
| 2026-05-05 15:18 | 52.31016 | 4.75287 | -1 ft | 0 kts | 70° |
| 2026-05-05 15:21 | 52.31018 | 4.75292 | -1 ft | 2 kts | 65° |
| 2026-05-05 15:21 | 52.31040 | 4.75332 | -1 ft | 8 kts | 51° |
| 2026-05-05 15:21 | 52.31077 | 4.75431 | -1 ft | 12 kts | 58° |
| 2026-05-05 15:21 | 52.31144 | 4.75498 | -1 ft | 13 kts | 359° |
| 2026-05-05 15:22 | 52.31240 | 4.75489 | -1 ft | 15 kts | 356° |
| 2026-05-05 15:22 | 52.31347 | 4.75478 | -1 ft | 16 kts | 357° |
| 2026-05-05 15:22 | 52.31426 | 4.75472 | -1 ft | 17 kts | 357° |
| 2026-05-05 15:22 | 52.31510 | 4.75390 | -1 ft | 11 kts | 266° |
| 2026-05-05 15:23 | 52.31504 | 4.75313 | -15 ft | 0 kts | 252° |
| 2026-05-05 15:25 | 52.31506 | 4.75272 | -1 ft | 1 kts | 257° |
| 2026-05-05 15:25 | 52.31504 | 4.75199 | -1 ft | 9 kts | 268° |
| 2026-05-05 15:25 | 52.31499 | 4.75085 | -1 ft | 13 kts | 266° |
| 2026-05-05 15:26 | 52.31495 | 4.74948 | -1 ft | 11 kts | 267° |
| 2026-05-05 15:26 | 52.31492 | 4.74826 | -1 ft | 10 kts | 267° |
| 2026-05-05 15:26 | 52.31487 | 4.74716 | -1 ft | 9 kts | 266° |
| 2026-05-05 15:26 | 52.31484 | 4.74621 | -1 ft | 8 kts | 267° |
| 2026-05-05 15:27 | 52.31482 | 4.74540 | -1 ft | 6 kts | 267° |
| 2026-05-05 15:27 | 52.31479 | 4.74451 | -1 ft | 10 kts | 267° |
| 2026-05-05 15:27 | 52.31473 | 4.74302 | -1 ft | 16 kts | 266° |
| 2026-05-05 15:27 | 52.31426 | 4.74158 | -1 ft | 14 kts | 210° |
| 2026-05-05 15:28 | 52.31333 | 4.74133 | -1 ft | 13 kts | 183° |
| 2026-05-05 15:28 | 52.31247 | 4.74124 | -1 ft | 12 kts | 184° |
| 2026-05-05 15:28 | 52.31168 | 4.74118 | -1 ft | 11 kts | 183° |
| 2026-05-05 15:28 | 52.31095 | 4.74111 | -1 ft | 11 kts | 183° |
| 2026-05-05 15:29 | 52.30997 | 4.74102 | -1 ft | 18 kts | 183° |
| 2026-05-05 15:29 | 52.30878 | 4.74091 | -1 ft | 16 kts | 182° |
| 2026-05-05 15:29 | 52.30771 | 4.74082 | -1 ft | 15 kts | 183° |
| 2026-05-05 15:29 | 52.30674 | 4.74073 | -1 ft | 13 kts | 183° |
| 2026-05-05 15:30 | 52.30588 | 4.74066 | -1 ft | 12 kts | 183° |
| 2026-05-05 15:30 | 52.30510 | 4.74060 | -1 ft | 11 kts | 183° |
| 2026-05-05 15:30 | 52.30426 | 4.74051 | -1 ft | 15 kts | 184° |
| 2026-05-05 15:30 | 52.30312 | 4.74008 | -1 ft | 17 kts | 202° |
| 2026-05-05 15:31 | 52.30220 | 4.73913 | -1 ft | 11 kts | 217° |
| 2026-05-05 15:31 | 52.30190 | 4.73819 | -2 ft | 9 kts | 268° |
| 2026-05-05 15:31 | 52.30221 | 4.73742 | -3 ft | 8 kts | 344° |
| 2026-05-05 15:31 | 52.30296 | 4.73746 | -4 ft | 18 kts | 3° |
| 2026-05-05 15:32 | 52.30615 | 4.73777 | -3 ft | 80 kts | 4° |
| 2026-05-05 15:32 | 52.31372 | 4.73845 | -2 ft | 136 kts | 3° |
| 2026-05-05 15:32 | 52.32447 | 4.73941 | 239 ft | 160 kts | 4° |
| 2026-05-05 15:32 | 52.33544 | 4.73942 | 1008 ft | 160 kts | 352° |
| 2026-05-05 15:33 | 52.34693 | 4.73428 | 1447 ft | 184 kts | 346° |
| 2026-05-05 15:33 | 52.35982 | 4.72682 | 1852 ft | 208 kts | 344° |
| 2026-05-05 15:33 | 52.37421 | 4.71822 | 2329 ft | 232 kts | 344° |
| 2026-05-05 15:33 | 52.39003 | 4.70882 | 2981 ft | 248 kts | 344° |
| 2026-05-05 15:34 | 52.40655 | 4.69925 | 3846 ft | 254 kts | 343° |
| 2026-05-05 15:34 | 52.42324 | 4.68900 | 4769 ft | 260 kts | 334° |
| 2026-05-05 15:34 | 52.43699 | 4.66932 | 5604 ft | 270 kts | 305° |
| 2026-05-05 15:34 | 52.44369 | 4.64059 | 6502 ft | 274 kts | 276° |
| 2026-05-05 15:35 | 52.44186 | 4.60945 | 7359 ft | 278 kts | 253° |
| 2026-05-05 15:35 | 52.43342 | 4.58089 | 8230 ft | 281 kts | 238° |
| 2026-05-05 15:35 | 52.42288 | 4.55372 | 9111 ft | 284 kts | 237° |
| 2026-05-05 15:35 | 52.41209 | 4.52638 | 9963 ft | 288 kts | 237° |
| 2026-05-05 15:36 | 52.40097 | 4.49835 | 10331 ft | 308 kts | 237° |
| 2026-05-05 15:36 | 52.38884 | 4.46783 | 10555 ft | 332 kts | 237° |
| 2026-05-05 15:36 | 52.37598 | 4.43543 | 11002 ft | 345 kts | 237° |
| 2026-05-05 15:36 | 52.36277 | 4.40217 | 11691 ft | 350 kts | 237° |
| 2026-05-05 15:37 | 52.34947 | 4.36867 | 12435 ft | 353 kts | 237° |
| 2026-05-05 15:37 | 52.33602 | 4.33487 | 13199 ft | 356 kts | 237° |
| 2026-05-05 15:37 | 52.32241 | 4.30074 | 13891 ft | 360 kts | 237° |
| 2026-05-05 15:37 | 52.30862 | 4.26626 | 14520 ft | 364 kts | 237° |
| 2026-05-05 15:38 | 52.29475 | 4.23161 | 15179 ft | 366 kts | 237° |
| 2026-05-05 15:38 | 52.28075 | 4.19669 | 15836 ft | 369 kts | 237° |
| 2026-05-05 15:38 | 52.26662 | 4.16147 | 16453 ft | 372 kts | 236° |
| 2026-05-05 15:38 | 52.25236 | 4.12595 | 17090 ft | 375 kts | 236° |
| 2026-05-05 15:39 | 52.23799 | 4.09025 | 17743 ft | 378 kts | 236° |
| 2026-05-05 15:39 | 52.22350 | 4.05427 | 18339 ft | 381 kts | 236° |
| 2026-05-05 15:39 | 52.20890 | 4.01800 | 18840 ft | 386 kts | 235° |
| 2026-05-05 15:39 | 52.19411 | 3.98125 | 19353 ft | 389 kts | 235° |
| 2026-05-05 15:40 | 52.17917 | 3.94425 | 19918 ft | 392 kts | 235° |
| 2026-05-05 15:40 | 52.16411 | 3.90710 | 20483 ft | 395 kts | 236° |
| 2026-05-05 15:40 | 52.14891 | 3.86968 | 21018 ft | 397 kts | 236° |
| 2026-05-05 15:40 | 52.13361 | 3.83211 | 21583 ft | 399 kts | 234° |
| 2026-05-05 15:41 | 52.11822 | 3.79437 | 22078 ft | 402 kts | 235° |
| 2026-05-05 15:41 | 52.10269 | 3.75627 | 22543 ft | 405 kts | 234° |
| 2026-05-05 15:41 | 52.08708 | 3.71801 | 23069 ft | 407 kts | 234° |
| 2026-05-05 15:41 | 52.07138 | 3.67950 | 23556 ft | 410 kts | 233° |
| 2026-05-05 15:42 | 52.05555 | 3.64076 | 23854 ft | 412 kts | 235° |
| 2026-05-05 15:42 | 52.03966 | 3.60198 | 23923 ft | 414 kts | 234° |
| 2026-05-05 15:42 | 52.02381 | 3.56349 | 23934 ft | 416 kts | 235° |
| 2026-05-05 15:42 | 52.00770 | 3.52432 | 23933 ft | 418 kts | 235° |
| 2026-05-05 15:43 | 51.99153 | 3.48520 | 23942 ft | 418 kts | 234° |
| 2026-05-05 15:43 | 51.97480 | 3.44654 | 23944 ft | 419 kts | 233° |
| 2026-05-05 15:43 | 51.95757 | 3.40831 | 23954 ft | 420 kts | 232° |
| 2026-05-05 15:43 | 51.94006 | 3.37027 | 23939 ft | 421 kts | 232° |
| 2026-05-05 15:44 | 51.92249 | 3.33230 | 23934 ft | 421 kts | 231° |
| 2026-05-05 15:44 | 51.90496 | 3.29430 | 23951 ft | 422 kts | 232° |
| 2026-05-05 15:44 | 51.88744 | 3.25612 | 23953 ft | 423 kts | 231° |
| 2026-05-05 15:44 | 51.86995 | 3.21780 | 23956 ft | 422 kts | 231° |
| 2026-05-05 15:45 | 51.85272 | 3.17938 | 23950 ft | 423 kts | 236° |
| 2026-05-05 15:45 | 51.83832 | 3.13787 | 23937 ft | 424 kts | 240° |
| 2026-05-05 15:45 | 51.82509 | 3.09535 | 23927 ft | 424 kts | 242° |
| 2026-05-05 15:45 | 51.81192 | 3.05335 | 23931 ft | 423 kts | 242° |
| 2026-05-05 15:46 | 51.79853 | 3.01098 | 23929 ft | 423 kts | 241° |
| 2026-05-05 15:46 | 51.78508 | 2.96868 | 23922 ft | 423 kts | 240° |
| 2026-05-05 15:46 | 51.77157 | 2.92638 | 23928 ft | 423 kts | 241° |
| 2026-05-05 15:46 | 51.75806 | 2.88411 | 23928 ft | 423 kts | 242° |
| 2026-05-05 15:47 | 51.74460 | 2.84198 | 23934 ft | 423 kts | 241° |
| 2026-05-05 15:47 | 51.73566 | 2.81402 | 23931 ft | 422 kts | 242° |
| 2026-05-05 15:47 | 51.71763 | 2.75777 | 23927 ft | 422 kts | 241° |
| 2026-05-05 15:47 | 51.70415 | 2.71569 | 23928 ft | 422 kts | 240° |
| 2026-05-05 15:48 | 51.69233 | 2.67238 | 23928 ft | 424 kts | 250° |
| 2026-05-05 15:48 | 51.68505 | 2.62634 | 23930 ft | 426 kts | 259° |
| 2026-05-05 15:48 | 51.68084 | 2.57906 | 23928 ft | 426 kts | 259° |
| 2026-05-05 15:48 | 51.67661 | 2.53182 | 23926 ft | 426 kts | 259° |
| 2026-05-05 15:49 | 51.67232 | 2.48460 | 23923 ft | 426 kts | 259° |
| 2026-05-05 15:49 | 51.66801 | 2.43734 | 23919 ft | 426 kts | 260° |
| 2026-05-05 15:49 | 51.66367 | 2.39016 | 23928 ft | 426 kts | 258° |
| 2026-05-05 15:49 | 51.65930 | 2.34298 | 23934 ft | 426 kts | 259° |
| 2026-05-05 15:50 | 51.65493 | 2.29588 | 23938 ft | 425 kts | 258° |
| 2026-05-05 15:50 | 51.65054 | 2.24875 | 23934 ft | 425 kts | 260° |
| 2026-05-05 15:50 | 51.64615 | 2.20167 | 23930 ft | 425 kts | 258° |
| 2026-05-05 15:50 | 51.64175 | 2.15461 | 23933 ft | 425 kts | 259° |
| 2026-05-05 15:51 | 51.63733 | 2.10762 | 23931 ft | 425 kts | 258° |
| 2026-05-05 15:51 | 51.63292 | 2.06055 | 23935 ft | 425 kts | 259° |
| 2026-05-05 15:51 | 51.62856 | 2.01352 | 23927 ft | 425 kts | 260° |
| 2026-05-05 15:51 | 51.62426 | 1.96710 | 23933 ft | 425 kts | 258° |
| 2026-05-05 15:52 | 51.61989 | 1.92007 | 23941 ft | 425 kts | 259° |
| 2026-05-05 15:52 | 51.61342 | 1.87387 | 23934 ft | 423 kts | 250° |
| 2026-05-05 15:52 | 51.60226 | 1.83025 | 23928 ft | 420 kts | 240° |
| 2026-05-05 15:52 | 51.58682 | 1.79060 | 23930 ft | 418 kts | 231° |
| 2026-05-05 15:53 | 51.56837 | 1.75450 | 23925 ft | 417 kts | 228° |
| 2026-05-05 15:53 | 51.54941 | 1.71942 | 23941 ft | 412 kts | 227° |
| 2026-05-05 15:53 | 51.53041 | 1.68526 | 23943 ft | 409 kts | 226° |
| 2026-05-05 15:53 | 51.51131 | 1.65137 | 23938 ft | 409 kts | 226° |
| 2026-05-05 15:54 | 51.49220 | 1.61751 | 23939 ft | 409 kts | 227° |
| 2026-05-05 15:54 | 51.47312 | 1.58378 | 23945 ft | 407 kts | 226° |
| 2026-05-05 15:54 | 51.45394 | 1.55026 | 23940 ft | 408 kts | 226° |
| 2026-05-05 15:54 | 51.43469 | 1.51684 | 23950 ft | 408 kts | 226° |
| 2026-05-05 15:55 | 51.41561 | 1.48368 | 23941 ft | 408 kts | 225° |
| 2026-05-05 15:55 | 51.39644 | 1.45028 | 23939 ft | 408 kts | 226° |
| 2026-05-05 15:55 | 51.37704 | 1.41697 | 23939 ft | 409 kts | 226° |
| 2026-05-05 15:55 | 51.35738 | 1.38417 | 23938 ft | 408 kts | 226° |
| 2026-05-05 15:56 | 51.33769 | 1.35150 | 23946 ft | 407 kts | 226° |
| 2026-05-05 15:56 | 51.31793 | 1.31888 | 23943 ft | 410 kts | 226° |
| 2026-05-05 15:56 | 51.29797 | 1.28636 | 23943 ft | 408 kts | 226° |
| 2026-05-05 15:56 | 51.27809 | 1.25407 | 23945 ft | 408 kts | 225° |
| 2026-05-05 15:57 | 51.25817 | 1.22172 | 23937 ft | 409 kts | 225° |
| 2026-05-05 15:57 | 51.23815 | 1.18927 | 23940 ft | 409 kts | 226° |
| 2026-05-05 15:57 | 51.21821 | 1.15700 | 23938 ft | 409 kts | 225° |
| 2026-05-05 15:57 | 51.19821 | 1.12460 | 23941 ft | 410 kts | 225° |
| 2026-05-05 15:58 | 51.17848 | 1.09268 | 23944 ft | 409 kts | 225° |
| 2026-05-05 15:58 | 51.15852 | 1.06046 | 23936 ft | 409 kts | 225° |
| 2026-05-05 15:58 | 51.13854 | 1.02823 | 23941 ft | 410 kts | 225° |
| 2026-05-05 15:58 | 51.11847 | 0.99584 | 23942 ft | 410 kts | 225° |
| 2026-05-05 15:59 | 51.09849 | 0.96369 | 23944 ft | 408 kts | 225° |
| 2026-05-05 15:59 | 51.07849 | 0.93156 | 23953 ft | 411 kts | 225° |
| 2026-05-05 15:59 | 51.05826 | 0.89899 | 23963 ft | 416 kts | 226° |
| 2026-05-05 15:59 | 51.03791 | 0.86628 | 23970 ft | 417 kts | 225° |
| 2026-05-05 16:00 | 51.01752 | 0.83353 | 23975 ft | 417 kts | 225° |
| 2026-05-05 16:00 | 50.99709 | 0.80074 | 23979 ft | 417 kts | 225° |
| 2026-05-05 16:00 | 50.97668 | 0.76806 | 23979 ft | 417 kts | 225° |
| 2026-05-05 16:00 | 50.95620 | 0.73528 | 23980 ft | 417 kts | 225° |
| 2026-05-05 16:01 | 50.93576 | 0.70254 | 23979 ft | 417 kts | 225° |
| 2026-05-05 16:01 | 50.91533 | 0.66985 | 23970 ft | 417 kts | 225° |
| 2026-05-05 16:01 | 50.89513 | 0.63755 | 23965 ft | 417 kts | 225° |
| 2026-05-05 16:01 | 50.87471 | 0.60488 | 23953 ft | 417 kts | 225° |
| 2026-05-05 16:02 | 50.85419 | 0.57235 | 23947 ft | 418 kts | 225° |
| 2026-05-05 16:02 | 50.83361 | 0.53985 | 23938 ft | 418 kts | 225° |
| 2026-05-05 16:02 | 50.81302 | 0.50726 | 23933 ft | 418 kts | 226° |
| 2026-05-05 16:02 | 50.79241 | 0.47475 | 23933 ft | 418 kts | 225° |
| 2026-05-05 16:03 | 50.77180 | 0.44221 | 23930 ft | 420 kts | 225° |
| 2026-05-05 16:03 | 50.75117 | 0.40949 | 23930 ft | 421 kts | 225° |
| 2026-05-05 16:03 | 50.73046 | 0.37675 | 23930 ft | 421 kts | 225° |
| 2026-05-05 16:03 | 50.70974 | 0.34400 | 23930 ft | 421 kts | 225° |